Time;durP1;ratioP1;P1;durP2;ratioP2;P2;SDS_P1;SDS_P2;PMS_P1;PMS_P2;Temp;Humidity;BMP_temperature;BMP_pressure;BME280_temperature;BME280_humidity;BME280_pressure;Samples;Min_cycle;Max_cycle;Signal;HPM_P1;HPM_P2
2024/02/09 00:02:03;;;;;;;;;;;;;;;7.29;100.00;94665.83;106999;1303;22555;-86
2024/02/09 00:04:49;;;;;;;;;;;;;;;7.34;100.00;94662.73;106868;1303;124928;-86
2024/02/09 00:08:00;;;;;;;;;;;;;;;7.39;100.00;94666.09;106797;1304;25446;-86
2024/02/09 00:11:04;;;;;;;;;;;;;;;7.44;100.00;94661.45;106764;1298;123600;-86
2024/02/09 00:14:11;;;;;;;;;;;;;;;7.48;100.00;94658.30;107025;1303;24015;-86
2024/02/09 00:17:17;;;;;;;;;;;;;;;7.51;100.00;94658.77;106956;1297;124741;-86
2024/02/09 00:20:25;;;;;;;;;;;;;;;7.54;100.00;94651.45;107023;1296;22649;-86
2024/02/09 00:23:32;;;;;;;;;;;;;;;7.58;100.00;94653.69;106908;1303;124744;-86
2024/02/09 00:26:37;;;;;;;;;;;;;;;7.61;100.00;94659.99;107023;1297;22607;-86
2024/02/09 00:29:45;;;;;;;;;;;;;;;7.64;100.00;94657.35;106987;1296;124908;-86
2024/02/09 00:32:53;;;;;;;;;;;;;;;7.68;100.00;94655.58;106945;1303;24283;-86
2024/02/09 00:36:22;;;;;;;;;;;;;;;7.75;100.00;94654.45;106948;1303;125115;-86
2024/02/09 00:39:09;;;;;;;;;;;;;;;7.81;100.00;94659.33;107028;1303;22530;-86
2024/02/09 00:42:18;;;;;;;;;;;;;;;7.87;100.00;94658.63;106979;1303;123816;-85
2024/02/09 00:45:24;;;;;;;;;;;;;;;7.90;100.00;94665.65;106995;1296;22569;-86
2024/02/09 00:48:33;;;;;;;;;;;;;;;7.92;100.00;94662.20;106954;1303;125133;-86
2024/02/09 00:51:41;;;;;;;;;;;;;;;7.95;100.00;94658.61;107075;1296;22676;-86
2024/02/09 00:58:04;;;;;;;;;;;;;;;8.01;100.00;94651.55;107116;1302;22536;-86
2024/02/09 01:01:11;;;;;;;;;;;;;;;8.02;100.00;94647.24;107108;1300;22556;-86
2024/02/09 01:04:18;;;;;;;;;;;;;;;8.01;100.00;94647.13;107085;1300;22600;-86
2024/02/09 01:07:26;;;;;;;;;;;;;;;8.03;100.00;94652.66;107027;1297;22579;-86
2024/02/09 01:10:33;;;;;;;;;;;;;;;8.07;100.00;94650.87;106968;1303;124051;-86
2024/02/09 02:46:23;;;;;;;;;;;;;;;8.90;100.00;94618.36;107095;1297;22740;-86
2024/02/09 03:04:57;;;;;;;;;;;;;;;8.98;100.00;94624.95;107080;1297;22571;-87
2024/02/09 03:08:15;;;;;;;;;;;;;;;9.00;100.00;94622.67;107006;1300;23028;-86
2024/02/09 03:11:17;;;;;;;;;;;;;;;9.04;100.00;94614.17;106855;1297;125391;-87
2024/02/09 03:14:25;;;;;;;;;;;;;;;9.08;100.00;94617.27;107019;1303;22868;-86
2024/02/09 03:17:30;;;;;;;;;;;;;;;9.10;100.00;94623.54;106505;1304;125447;-86
2024/02/09 03:20:40;;;;;;;;;;;;;;;9.10;100.00;94623.70;106884;1300;22608;-87
2024/02/09 03:23:43;;;;;;;;;;;;;;;9.09;100.00;94621.60;106835;1303;125454;-86
2024/02/09 03:26:51;;;;;;;;;;;;;;;9.11;100.00;94626.30;106827;1300;23027;-87
2024/02/09 03:29:59;;;;;;;;;;;;;;;9.13;100.00;94624.14;106817;1303;125240;-86
2024/02/09 03:33:05;;;;;;;;;;;;;;;9.15;100.00;94628.50;106866;1298;22589;-86
2024/02/09 03:36:12;;;;;;;;;;;;;;;9.17;100.00;94631.70;106753;1297;125141;-87
2024/02/09 03:39:19;;;;;;;;;;;;;;;9.19;100.00;94631.55;106842;1298;22587;-86
2024/02/09 03:42:26;;;;;;;;;;;;;;;9.22;100.00;94632.00;106574;1304;125061;-87
2024/02/09 03:45:39;;;;;;;;;;;;;;;9.23;100.00;94629.74;106826;1298;23317;-87
2024/02/09 03:48:42;;;;;;;;;;;;;;;9.24;100.00;94633.49;106551;1292;125214;-87
2024/02/09 03:51:49;;;;;;;;;;;;;;;9.23;100.00;94632.50;106850;1304;22566;-86
2024/02/09 03:54:56;;;;;;;;;;;;;;;9.24;100.00;94631.80;106972;1303;125308;-86
2024/02/09 03:58:03;;;;;;;;;;;;;;;9.27;100.00;94635.98;107004;1300;22523;-86
2024/02/09 04:01:10;;;;;;;;;;;;;;;9.27;100.00;94636.62;106844;1297;126248;-86
2024/02/09 04:04:18;;;;;;;;;;;;;;;9.28;100.00;94642.36;106955;1296;22571;-87
2024/02/09 04:07:24;;;;;;;;;;;;;;;9.28;100.00;94634.74;106848;1303;125281;-87
2024/02/09 04:10:31;;;;;;;;;;;;;;;9.29;100.00;94636.16;106959;1300;22537;-86
2024/02/09 04:13:37;;;;;;;;;;;;;;;9.29;100.00;94633.38;106835;1297;22579;-86
2024/02/09 04:17:07;;;;;;;;;;;;;;;9.29;100.00;94631.02;106938;1297;22987;-87
2024/02/09 04:19:57;;;;;;;;;;;;;;;9.27;100.00;94629.60;106897;1302;24390;-87
2024/02/09 04:23:02;;;;;;;;;;;;;;;9.28;100.00;94632.39;106910;1303;22535;-86
2024/02/09 04:26:10;;;;;;;;;;;;;;;9.30;100.00;94626.66;106957;1302;22831;-86
2024/02/09 04:29:16;;;;;;;;;;;;;;;9.33;100.00;94628.73;106933;1299;24845;-86
2024/02/09 04:32:23;;;;;;;;;;;;;;;9.35;100.00;94625.77;106995;1296;22607;-87
2024/02/09 04:35:30;;;;;;;;;;;;;;;9.36;100.00;94618.89;106857;1303;22649;-87
2024/02/09 04:39:01;;;;;;;;;;;;;;;9.35;100.00;94610.69;106962;1303;22742;-86
2024/02/09 04:41:44;;;;;;;;;;;;;;;9.34;100.00;94609.27;106746;1302;125205;-87
2024/02/09 04:44:51;;;;;;;;;;;;;;;9.30;100.00;94609.48;107004;1299;22535;-86
2024/02/09 04:47:58;;;;;;;;;;;;;;;9.29;100.00;94608.58;106861;1295;125242;-87
2024/02/09 04:51:06;;;;;;;;;;;;;;;9.28;100.00;94602.45;107019;1302;22495;-87
2024/02/09 04:54:13;;;;;;;;;;;;;;;9.30;100.00;94599.23;106827;1302;125314;-86
2024/02/09 04:57:21;;;;;;;;;;;;;;;9.29;100.00;94593.25;106972;1301;25426;-86
2024/02/09 05:00:27;;;;;;;;;;;;;;;9.30;100.00;94596.59;106836;1303;125555;-87
2024/02/09 05:03:34;;;;;;;;;;;;;;;9.29;100.00;94598.48;106952;1297;24025;-86
2024/02/09 05:06:40;;;;;;;;;;;;;;;9.29;100.00;94596.73;106853;1303;125760;-87
2024/02/09 05:09:48;;;;;;;;;;;;;;;9.29;100.00;94593.81;106921;1302;22581;-87
2024/02/09 05:13:02;;;;;;;;;;;;;;;9.26;100.00;94594.23;106955;1299;125450;-87
2024/02/09 05:16:02;;;;;;;;;;;;;;;9.27;100.00;94594.07;106966;1303;22528;-86
2024/02/09 05:19:36;;;;;;;;;;;;;;;9.29;100.00;94600.34;106847;1297;125534;-86
2024/02/09 05:22:15;;;;;;;;;;;;;;;9.36;100.00;94606.38;106897;1303;22581;-87
2024/02/09 05:25:22;;;;;;;;;;;;;;;9.36;100.00;94612.60;106849;1300;125049;-86
2024/02/09 05:28:32;;;;;;;;;;;;;;;9.34;100.00;94614.61;106962;1297;22573;-87
2024/02/09 05:31:41;;;;;;;;;;;;;;;9.34;100.00;94622.70;106854;1303;125266;-86
2024/02/09 05:34:44;;;;;;;;;;;;;;;9.33;100.00;94624.39;106935;1300;22529;-86
2024/02/09 05:37:51;;;;;;;;;;;;;;;9.31;100.00;94628.76;106823;1303;125065;-87
2024/02/09 05:40:57;;;;;;;;;;;;;;;9.30;100.00;94627.79;106979;1296;22688;-87
2024/02/09 05:44:06;;;;;;;;;;;;;;;9.27;100.00;94625.64;106872;1303;25426;-86
2024/02/09 05:47:11;;;;;;;;;;;;;;;9.25;100.00;94626.90;106900;1297;22550;-87
2024/02/09 05:50:09;;;;;;;;;;;;;;;;;;;;;
2024/02/09 05:53:18;;;;;;;;;;;;;;;9.15;100.00;94624.51;106886;1303;22520;-86
2024/02/09 05:57:06;;;;;;;;;;;;;;;9.12;100.00;94625.73;106961;1295;22528;-87
2024/02/09 05:59:44;;;;;;;;;;;;;;;9.07;100.00;94623.46;106871;1303;24241;-87
2024/02/09 06:02:52;;;;;;;;;;;;;;;9.03;100.00;94624.27;107001;1303;22654;-87
2024/02/09 06:05:57;;;;;;;;;;;;;;;8.99;100.00;94625.27;106909;1303;124200;-87
2024/02/09 06:09:25;;;;;;;;;;;;;;;8.93;100.00;94627.18;106967;1297;22564;-86
2024/02/09 06:12:13;;;;;;;;;;;;;;;8.90;100.00;94624.27;106823;1289;125368;-87
2024/02/09 06:15:20;;;;;;;;;;;;;;;8.89;100.00;94628.94;106943;1303;24305;-87
2024/02/09 06:18:27;;;;;;;;;;;;;;;8.87;100.00;94629.36;106885;1297;125165;-87
2024/02/09 06:21:56;;;;;;;;;;;;;;;8.83;100.00;94626.30;106978;1303;22580;-87
2024/02/09 06:24:44;;;;;;;;;;;;;;;8.80;100.00;94627.61;106833;1297;125140;-86
2024/02/09 06:27:52;;;;;;;;;;;;;;;8.79;100.00;94635.02;107012;1303;23827;-87
2024/02/09 06:31:00;;;;;;;;;;;;;;;8.80;100.00;94636.73;106913;1303;125560;-87
2024/02/09 06:34:28;;;;;;;;;;;;;;;8.79;100.00;94634.85;107140;1297;23473;-86
2024/02/09 06:37:18;;;;;;;;;;;;;;;8.73;100.00;94636.40;106804;1295;125315;-87
2024/02/09 06:40:22;;;;;;;;;;;;;;;8.72;100.00;94635.90;107002;1303;22614;-88
2024/02/09 06:43:29;;;;;;;;;;;;;;;8.71;100.00;94637.95;106837;1303;125195;-85
2024/02/09 06:46:36;;;;;;;;;;;;;;;8.70;100.00;94644.29;106929;1303;22649;-87
2024/02/09 06:49:43;;;;;;;;;;;;;;;8.67;100.00;94646.91;106864;1303;125118;-87
2024/02/09 06:52:50;;;;;;;;;;;;;;;8.67;100.00;94646.02;106970;1298;22975;-87
2024/02/09 06:56:00;;;;;;;;;;;;;;;8.67;100.00;94644.73;106907;1303;125289;-87
2024/02/09 06:59:09;;;;;;;;;;;;;;;8.68;100.00;94644.34;106979;1298;22683;-87
2024/02/09 07:02:14;;;;;;;;;;;;;;;8.69;100.00;94648.55;106996;1303;25459;-87
2024/02/09 07:08:39;;;;;;;;;;;;;;;8.77;100.00;94647.23;106929;1287;22565;-89
2024/02/09 07:11:40;;;;;;;;;;;;;;;8.81;100.00;94652.17;106981;1303;24262;-86
2024/02/09 07:14:47;;;;;;;;;;;;;;;8.84;100.00;94656.73;106970;1303;22583;-87
2024/02/09 07:17:56;;;;;;;;;;;;;;;8.86;100.00;94655.39;106934;1303;24305;-87
2024/02/09 07:21:00;;;;;;;;;;;;;;;8.85;100.00;94651.53;106970;1297;22569;-86
2024/02/09 07:24:08;;;;;;;;;;;;;;;8.83;100.00;94647.38;106976;1303;22558;-86
2024/02/09 07:27:15;;;;;;;;;;;;;;;8.82;100.00;94647.14;106883;1298;22683;-87
2024/02/09 07:30:24;;;;;;;;;;;;;;;8.81;100.00;94641.38;106884;1303;124634;-86
2024/02/09 07:33:28;;;;;;;;;;;;;;;8.83;100.00;94643.61;106962;1303;22646;-86
2024/02/09 07:36:38;;;;;;;;;;;;;;;8.87;100.00;94644.98;106884;1303;125208;-87
2024/02/09 07:39:44;;;;;;;;;;;;;;;8.95;100.00;94647.54;106934;1300;22677;-87
2024/02/09 07:42:51;;;;;;;;;;;;;;;8.99;100.00;94655.08;106872;1297;125259;-87
2024/02/09 07:45:57;;;;;;;;;;;;;;;9.05;100.00;94663.63;106937;1303;22568;-87
2024/02/09 07:49:04;;;;;;;;;;;;;;;9.11;100.00;94667.48;106855;1297;125008;-86
2024/02/09 07:52:11;;;;;;;;;;;;;;;9.13;100.00;94666.88;107081;1296;22522;-87
2024/02/09 07:55:21;;;;;;;;;;;;;;;9.18;100.00;94665.42;106790;1303;125139;-86
2024/02/09 07:58:25;;;;;;;;;;;;;;;9.19;100.00;94670.08;106928;1303;22545;-87
2024/02/09 08:01:32;;;;;;;;;;;;;;;9.20;100.00;94663.96;106862;1303;124710;-86
2024/02/09 08:07:59;;;;;;;;;;;;;;;9.22;100.00;94659.98;106613;1303;125109;-87
2024/02/09 08:11:05;;;;;;;;;;;;;;;9.25;100.00;94659.39;106955;1303;22502;-87
2024/02/09 08:14:12;;;;;;;;;;;;;;;9.26;100.00;94659.34;106936;1296;125060;-87
2024/02/09 08:17:19;;;;;;;;;;;;;;;9.29;100.00;94658.73;106932;1297;24330;-87
2024/02/09 08:20:26;;;;;;;;;;;;;;;9.30;100.00;94659.25;106891;1302;125502;-86
2024/02/09 08:23:33;;;;;;;;;;;;;;;9.32;100.00;94660.09;106942;1303;23308;-87
2024/02/09 08:26:40;;;;;;;;;;;;;;;9.33;100.00;94660.95;106982;1296;22575;-87
2024/02/09 08:29:54;;;;;;;;;;;;;;;9.35;100.00;94657.83;106910;1297;22662;-87
2024/02/09 08:32:53;;;;;;;;;;;;;;;9.34;100.00;94658.48;107027;1302;22569;-87
2024/02/09 08:36:00;;;;;;;;;;;;;;;9.35;100.00;94659.42;107062;1302;24248;-86
2024/02/09 08:39:08;;;;;;;;;;;;;;;9.33;100.00;94655.41;106946;1303;22537;-87
2024/02/09 08:42:15;;;;;;;;;;;;;;;9.34;100.00;94655.73;106966;1301;22769;-86
2024/02/09 08:45:21;;;;;;;;;;;;;;;9.35;100.00;94656.16;106900;1303;22583;-87
2024/02/09 08:51:35;;;;;;;;;;;;;;;9.43;100.00;94653.11;106796;1297;22710;-87
2024/02/09 08:54:45;;;;;;;;;;;;;;;9.47;100.00;94652.48;106857;1297;125826;-87
2024/02/09 08:57:52;;;;;;;;;;;;;;;9.50;100.00;94646.64;106940;1294;22587;-86
2024/02/09 09:00:59;;;;;;;;;;;;;;;9.52;100.00;94646.27;106700;1297;124729;-86
2024/02/09 09:04:05;;;;;;;;;;;;;;;9.53;100.00;94638.27;106950;1298;24392;-87
2024/02/09 09:07:15;;;;;;;;;;;;;;;9.56;100.00;94634.36;106932;1295;125251;-87
2024/02/09 09:10:22;;;;;;;;;;;;;;;9.61;100.00;94632.60;107030;1297;22566;-85
2024/02/09 09:13:30;;;;;;;;;;;;;;;9.67;100.00;94625.79;106889;1297;124466;-87
2024/02/09 09:16:36;;;;;;;;;;;;;;;9.73;100.00;94624.08;106917;1300;25456;-87
2024/02/09 09:19:43;;;;;;;;;;;;;;;9.76;100.00;94627.59;106840;1303;124244;-87
2024/02/09 09:22:50;;;;;;;;;;;;;;;9.77;100.00;94624.71;107005;1302;22580;-87
2024/02/09 09:25:56;;;;;;;;;;;;;;;9.79;100.00;94617.83;106787;1303;125323;-86
2024/02/09 09:29:04;;;;;;;;;;;;;;;9.84;100.00;94612.13;106921;1303;22518;-87
2024/02/09 09:32:11;;;;;;;;;;;;;;;9.88;100.00;94613.02;106884;1302;125747;-86
2024/02/09 09:35:17;;;;;;;;;;;;;;;9.91;100.00;94613.79;106760;1303;22935;-87
2024/02/09 09:38:26;;;;;;;;;;;;;;;9.97;100.00;94609.41;106801;1300;126170;-85
2024/02/09 09:41:32;;;;;;;;;;;;;;;10.02;100.00;94607.41;106947;1302;22534;-87
2024/02/09 09:44:38;;;;;;;;;;;;;;;10.08;100.00;94607.65;106874;1303;125205;-87
2024/02/09 09:47:45;;;;;;;;;;;;;;;10.15;100.00;94602.23;107014;1303;22637;-87
2024/02/09 09:50:53;;;;;;;;;;;;;;;10.24;100.00;94607.20;106853;1303;125131;-86
2024/02/09 09:54:00;;;;;;;;;;;;;;;10.35;100.00;94595.58;106738;1297;22594;-86
2024/02/09 09:57:07;;;;;;;;;;;;;;;10.44;100.00;94599.55;106836;1304;22676;-87
2024/02/09 10:00:14;;;;;;;;;;;;;;;10.52;100.00;94599.10;106813;1304;25359;-87
2024/02/09 10:03:21;;;;;;;;;;;;;;;10.58;100.00;94596.50;106787;1304;22639;-87
2024/02/09 10:06:28;;;;;;;;;;;;;;;10.65;99.85;94594.52;106826;1297;22606;-87
2024/02/09 10:09:35;;;;;;;;;;;;;;;10.73;100.00;94583.21;106796;1301;23227;-87
2024/02/09 10:12:42;;;;;;;;;;;;;;;10.79;99.35;94580.55;106803;1304;25433;-87
2024/02/09 10:15:49;;;;;;;;;;;;;;;10.86;98.18;94581.36;106847;1298;23035;-87
2024/02/09 10:18:57;;;;;;;;;;;;;;;10.89;99.28;94579.45;106683;1304;124557;-88
2024/02/09 10:22:04;;;;;;;;;;;;;;;10.92;99.70;94579.38;106926;1303;22607;-87
2024/02/09 10:25:12;;;;;;;;;;;;;;;10.93;98.48;94577.41;106730;1303;124926;-87
2024/02/09 10:28:18;;;;;;;;;;;;;;;10.92;99.38;94574.91;106820;1297;22568;-86
2024/02/09 10:31:25;;;;;;;;;;;;;;;10.93;99.68;94567.04;106893;1304;125235;-87
2024/02/09 10:34:32;;;;;;;;;;;;;;;10.99;99.17;94557.69;106852;1297;22569;-86
2024/02/09 10:37:39;;;;;;;;;;;;;;;11.04;98.11;94550.51;106744;1303;125690;-86
2024/02/09 10:40:46;;;;;;;;;;;;;;;11.07;98.42;94549.59;106896;1303;22581;-87
2024/02/09 10:43:53;;;;;;;;;;;;;;;11.09;98.85;94544.71;106639;1298;124726;-87
2024/02/09 10:47:00;;;;;;;;;;;;;;;11.12;99.06;94544.97;106868;1304;22572;-87
2024/02/09 10:50:07;;;;;;;;;;;;;;;11.16;99.26;94536.09;106823;1303;124340;-87
2024/02/09 10:53:14;;;;;;;;;;;;;;;11.20;98.98;94534.55;106875;1303;22547;-86
2024/02/09 10:56:25;;;;;;;;;;;;;;;11.25;98.58;94530.58;106753;1302;125200;-87
2024/02/09 10:59:42;;;;;;;;;;;;;;;11.31;98.53;94522.88;107012;1298;22533;-87
2024/02/09 11:02:43;;;;;;;;;;;;;;;11.37;97.39;94526.90;106869;1303;125596;-87
2024/02/09 11:05:49;;;;;;;;;;;;;;;11.41;96.67;94522.30;106960;1303;22525;-87
2024/02/09 11:08:56;;;;;;;;;;;;;;;11.42;96.54;94520.49;106882;1300;123977;-86
2024/02/09 11:12:27;;;;;;;;;;;;;;;11.44;96.47;94516.37;106989;1289;22671;-87
2024/02/09 11:15:12;;;;;;;;;;;;;;;11.45;95.68;94514.61;106751;1298;124355;-86
2024/02/09 11:18:16;;;;;;;;;;;;;;;11.46;96.17;94505.21;107063;1298;22605;-87
2024/02/09 11:21:24;;;;;;;;;;;;;;;11.46;95.99;94504.23;106952;1298;22624;-86
2024/02/09 11:24:31;;;;;;;;;;;;;;;11.47;96.31;94501.95;106992;1303;22576;-86
2024/02/09 11:27:41;;;;;;;;;;;;;;;11.48;95.76;94502.58;106935;1295;22713;-87
2024/02/09 11:30:45;;;;;;;;;;;;;;;11.48;94.86;94504.52;106785;1296;22611;-87
2024/02/09 11:33:44;;;;;;;;;;;;;;;;;;;;;
2024/02/09 11:36:53;;;;;;;;;;;;;;;11.44;93.13;94508.05;106914;1298;22594;-87
2024/02/09 11:40:00;;;;;;;;;;;;;;;11.43;93.13;94508.04;106828;1300;22606;-86
2024/02/09 11:43:07;;;;;;;;;;;;;;;11.40;92.13;94500.94;106918;1300;22579;-87
2024/02/09 11:46:14;;;;;;;;;;;;;;;11.37;92.99;94503.42;106997;1303;22600;-86
2024/02/09 11:49:18;;;;;;;;;;;;;;;;;;;;;
2024/02/09 11:52:28;;;;;;;;;;;;;;;11.40;92.05;94508.45;107034;1303;22719;-86
2024/02/09 11:55:35;;;;;;;;;;;;;;;11.42;91.25;94501.93;106882;1301;125282;-87
2024/02/09 11:58:42;;;;;;;;;;;;;;;11.47;90.53;94503.98;106996;1300;22643;-87
2024/02/09 12:01:53;;;;;;;;;;;;;;;11.48;88.99;94506.80;106868;1303;125037;-87
2024/02/09 12:04:56;;;;;;;;;;;;;;;11.48;89.71;94509.34;107001;1303;25425;-87
2024/02/09 12:08:03;;;;;;;;;;;;;;;11.49;90.25;94509.38;106873;1303;124451;-87
2024/02/09 12:14:26;;;;;;;;;;;;;;;11.55;89.67;94495.73;106677;1301;124416;-87
2024/02/09 12:17:33;;;;;;;;;;;;;;;11.51;89.21;94496.30;106899;1300;24500;-87
2024/02/09 12:20:40;;;;;;;;;;;;;;;11.48;88.69;94501.23;106894;1301;124902;-87
2024/02/09 12:23:45;;;;;;;;;;;;;;;;;;;;;
2024/02/09 12:26:54;;;;;;;;;;;;;;;11.42;86.60;94498.29;106876;1296;125069;-86
2024/02/09 12:30:00;;;;;;;;;;;;;;;11.38;85.92;94498.89;107012;1301;22552;-87
2024/02/09 12:33:07;;;;;;;;;;;;;;;11.31;85.23;94495.16;106906;1300;124347;-87
2024/02/09 12:36:14;;;;;;;;;;;;;;;11.26;85.38;94490.77;106985;1296;22547;-86
2024/02/09 12:39:21;;;;;;;;;;;;;;;11.25;86.44;94490.33;106873;1302;124708;-87
2024/02/09 12:42:27;;;;;;;;;;;;;;;11.26;86.61;94495.85;106996;1303;22557;-87
2024/02/09 12:45:34;;;;;;;;;;;;;;;11.26;86.81;94499.80;106863;1303;124925;-86
2024/02/09 12:48:42;;;;;;;;;;;;;;;11.26;87.66;94501.94;106947;1303;22579;-86
2024/02/09 12:51:48;;;;;;;;;;;;;;;11.25;87.16;94505.77;106830;1303;23914;-87
2024/02/09 12:54:59;;;;;;;;;;;;;;;11.25;87.11;94509.09;106968;1303;22541;-87
2024/02/09 12:58:09;;;;;;;;;;;;;;;11.27;86.88;94514.58;106961;1296;22854;-87
2024/02/09 13:01:34;;;;;;;;;;;;;;;11.23;86.13;94517.05;106979;1303;23445;-87
2024/02/09 13:04:23;;;;;;;;;;;;;;;11.20;86.89;94520.83;106935;1303;22966;-86
2024/02/09 13:07:30;;;;;;;;;;;;;;;11.18;87.02;94520.58;106729;1302;22979;-87
2024/02/09 13:10:37;;;;;;;;;;;;;;;11.21;86.89;94519.12;107105;1300;22541;-87
2024/02/09 13:13:43;;;;;;;;;;;;;;;11.19;86.99;94522.06;106895;1296;124931;-87
2024/02/09 13:16:44;;;;;;;;;;;;;;;11.13;85.99;94525.13;106976;1299;22523;-87
2024/02/09 13:19:52;;;;;;;;;;;;;;;11.09;86.86;94525.84;106887;1303;124561;-87
2024/02/09 13:23:23;;;;;;;;;;;;;;;11.08;87.25;94527.85;106956;1303;22772;-87
2024/02/09 13:26:11;;;;;;;;;;;;;;;11.06;86.90;94522.38;106816;1298;126108;-87
2024/02/09 13:29:14;;;;;;;;;;;;;;;11.04;87.65;94520.73;106889;1302;22593;-87
2024/02/09 13:32:22;;;;;;;;;;;;;;;11.02;86.76;94519.33;106879;1298;125695;-87
2024/02/09 13:35:28;;;;;;;;;;;;;;;11.03;87.39;94512.34;106977;1303;22579;-87
2024/02/09 13:38:36;;;;;;;;;;;;;;;11.06;87.63;94509.38;106872;1303;124849;-87
2024/02/09 13:41:42;;;;;;;;;;;;;;;11.06;87.43;94510.61;106918;1295;23838;-87
2024/02/09 13:44:49;;;;;;;;;;;;;;;11.05;87.69;94512.02;106840;1303;124465;-86
2024/02/09 13:47:59;;;;;;;;;;;;;;;11.03;87.58;94506.67;102653;1303;22571;-86
2024/02/09 13:51:07;;;;;;;;;;;;;;;11.01;87.80;94515.02;106898;1300;124816;-87
2024/02/09 13:54:12;;;;;;;;;;;;;;;11.00;87.69;94518.46;106981;1303;25489;-87
2024/02/09 13:57:19;;;;;;;;;;;;;;;10.98;87.41;94517.48;106844;1302;124834;-87
2024/02/09 14:00:26;;;;;;;;;;;;;;;10.98;88.05;94519.73;106876;1303;22703;-86
2024/02/09 14:03:33;;;;;;;;;;;;;;;10.98;88.82;94526.58;106814;1296;124483;-87
2024/02/09 14:06:42;;;;;;;;;;;;;;;10.97;88.73;94533.99;106960;1303;22572;-86
2024/02/09 14:09:48;;;;;;;;;;;;;;;10.97;88.83;94532.18;106586;1303;125394;-86
2024/02/09 14:16:15;;;;;;;;;;;;;;;10.94;88.38;94525.58;106673;1303;22568;-86
2024/02/09 14:19:24;;;;;;;;;;;;;;;10.91;88.55;94511.83;106911;1303;22533;-85
2024/02/09 14:22:31;;;;;;;;;;;;;;;10.87;88.25;94508.11;106942;1303;22853;-85
2024/02/09 14:25:38;;;;;;;;;;;;;;;10.83;89.17;94505.81;106909;1303;22563;-86
2024/02/09 14:28:47;;;;;;;;;;;;;;;10.80;88.31;94503.31;107399;1303;22544;-86
2024/02/09 14:31:55;;;;;;;;;;;;;;;10.75;88.55;94494.59;106942;1303;22597;-85
2024/02/09 14:35:13;;;;;;;;;;;;;;;10.74;88.70;94489.82;106883;1303;22547;-86
2024/02/09 14:38:14;;;;;;;;;;;;;;;10.71;88.84;94493.64;106857;1303;124260;-86
2024/02/09 14:41:22;;;;;;;;;;;;;;;10.68;88.83;94486.98;106930;1303;22592;-85
2024/02/09 14:44:31;;;;;;;;;;;;;;;10.67;89.26;94494.65;106830;1301;125392;-85
2024/02/09 14:47:38;;;;;;;;;;;;;;;10.64;89.13;94495.27;106897;1299;22615;-85
2024/02/09 14:50:46;;;;;;;;;;;;;;;10.60;88.80;94501.21;106796;1303;124217;-86
2024/02/09 14:53:53;;;;;;;;;;;;;;;10.57;88.71;94505.58;106679;1298;22591;-85
2024/02/09 14:57:01;;;;;;;;;;;;;;;10.52;88.81;94506.40;106786;1295;124188;-86
2024/02/09 15:00:20;;;;;;;;;;;;;;;10.49;89.01;94505.04;106923;1300;22610;-85
2024/02/09 15:03:22;;;;;;;;;;;;;;;10.43;88.87;94501.39;106817;1303;125080;-86
2024/02/09 15:06:28;;;;;;;;;;;;;;;10.41;89.19;94490.55;106901;1303;22574;-86
2024/02/09 15:09:47;;;;;;;;;;;;;;;10.37;89.20;94484.62;106724;1301;125234;-85
2024/02/09 15:12:48;;;;;;;;;;;;;;;10.35;89.15;94485.92;106900;1301;22491;-86
2024/02/09 15:15:55;;;;;;;;;;;;;;;10.33;88.96;94486.14;106714;1303;123601;-86
2024/02/09 15:19:04;;;;;;;;;;;;;;;10.30;89.40;94483.69;106913;1302;22517;-85
2024/02/09 15:22:10;;;;;;;;;;;;;;;10.28;88.56;94482.56;106824;1293;123542;-86
2024/02/09 15:25:19;;;;;;;;;;;;;;;10.26;88.73;94476.13;106682;1302;24228;-86
2024/02/09 15:28:28;;;;;;;;;;;;;;;10.27;88.76;94470.80;106832;1295;125303;-86
2024/02/09 15:31:37;;;;;;;;;;;;;;;10.29;88.80;94468.20;106931;1303;23808;-85
2024/02/09 15:34:44;;;;;;;;;;;;;;;10.30;88.31;94465.04;106827;1303;22601;-85
2024/02/09 15:37:54;;;;;;;;;;;;;;;10.31;88.48;94457.90;106913;1303;22582;-86
2024/02/09 15:40:59;;;;;;;;;;;;;;;10.32;88.44;94456.68;106905;1301;22598;-85
2024/02/09 15:44:08;;;;;;;;;;;;;;;10.31;87.47;94456.66;106900;1303;22638;-85
2024/02/09 15:47:17;;;;;;;;;;;;;;;10.33;87.59;94461.06;107496;1295;23092;-85
2024/02/09 15:50:24;;;;;;;;;;;;;;;10.36;87.32;94464.45;106915;1297;123785;-86
2024/02/09 15:53:32;;;;;;;;;;;;;;;10.38;86.89;94469.36;106904;1303;22579;-86
2024/02/09 15:56:38;;;;;;;;;;;;;;;10.39;87.21;94474.12;106820;1303;125369;-86
2024/02/09 15:59:46;;;;;;;;;;;;;;;10.40;86.96;94481.83;106933;1296;22731;-86
2024/02/09 16:02:56;;;;;;;;;;;;;;;10.41;86.33;94492.35;106733;1302;124991;-86
2024/02/09 16:06:13;;;;;;;;;;;;;;;10.39;86.38;94495.45;106953;1303;22568;-85
2024/02/09 16:09:15;;;;;;;;;;;;;;;10.37;86.65;94497.38;106776;1297;124551;-86
2024/02/09 16:12:20;;;;;;;;;;;;;;;10.34;87.41;94496.95;106823;1303;24498;-86
2024/02/09 16:15:27;;;;;;;;;;;;;;;10.28;87.40;94495.30;106811;1303;123481;-86
2024/02/09 16:18:35;;;;;;;;;;;;;;;10.23;87.42;94501.84;107045;1302;22580;-88
2024/02/09 16:21:42;;;;;;;;;;;;;;;10.18;86.89;94504.72;107413;1302;125180;-87
2024/02/09 16:24:48;;;;;;;;;;;;;;;10.18;87.84;94508.72;107371;1303;22569;-88
2024/02/09 16:27:55;;;;;;;;;;;;;;;10.17;88.09;94500.95;107419;1294;125692;-88
2024/02/09 16:31:08;;;;;;;;;;;;;;;10.17;88.32;94493.69;107472;1297;22595;-87
2024/02/09 16:34:09;;;;;;;;;;;;;;;10.17;88.12;94501.54;107289;1303;124720;-88
2024/02/09 16:37:17;;;;;;;;;;;;;;;10.17;87.89;94505.63;107382;1303;22778;-89
2024/02/09 16:40:24;;;;;;;;;;;;;;;10.14;87.86;94509.42;107287;1302;124849;-88
2024/02/09 16:43:31;;;;;;;;;;;;;;;10.14;88.18;94509.66;107456;1302;22623;-88
2024/02/09 16:46:39;;;;;;;;;;;;;;;10.14;88.13;94515.17;107311;1303;124430;-88
2024/02/09 16:49:46;;;;;;;;;;;;;;;10.11;88.31;94521.81;107456;1303;22504;-87
2024/02/09 16:52:52;;;;;;;;;;;;;;;10.07;88.54;94522.57;107412;1300;22567;-88
2024/02/09 16:56:00;;;;;;;;;;;;;;;10.08;88.52;94521.44;107422;1297;22564;-89
2024/02/09 16:59:07;;;;;;;;;;;;;;;10.08;88.60;94518.89;107479;1302;22573;-87
2024/02/09 17:02:14;;;;;;;;;;;;;;;10.09;88.63;94519.01;107574;1297;24322;-88
2024/02/09 17:05:22;;;;;;;;;;;;;;;10.13;88.54;94520.23;107450;1299;23348;-88
2024/02/09 17:08:28;;;;;;;;;;;;;;;10.14;88.39;94520.92;107338;1293;22578;-88
2024/02/09 17:11:35;;;;;;;;;;;;;;;10.10;88.26;94518.88;107353;1296;22571;-88
2024/02/09 17:14:56;;;;;;;;;;;;;;;10.03;89.44;94517.38;107282;1303;125235;-88
2024/02/09 17:18:34;;;;;;;;;;;;;;;9.91;89.55;94514.88;107354;1303;24583;-88
2024/02/09 17:21:35;;;;;;;;;;;;;;;9.81;89.69;94512.40;107239;1302;124347;-88
2024/02/09 17:24:18;;;;;;;;;;;;;;;9.73;89.98;94507.41;107268;1300;22575;-87
2024/02/09 17:27:26;;;;;;;;;;;;;;;9.60;90.03;94504.96;107193;1303;124577;-88
2024/02/09 17:30:32;;;;;;;;;;;;;;;9.52;90.10;94506.98;107384;1297;23142;-87
2024/02/09 17:33:40;;;;;;;;;;;;;;;9.47;90.28;94510.41;107304;1296;124899;-88
2024/02/09 17:36:48;;;;;;;;;;;;;;;9.42;90.23;94512.89;107446;1302;22578;-88
2024/02/09 17:39:55;;;;;;;;;;;;;;;9.41;90.34;94520.80;107247;1300;124959;-88
2024/02/09 17:43:03;;;;;;;;;;;;;;;9.40;90.59;94517.58;107320;1301;24391;-88
2024/02/09 17:46:10;;;;;;;;;;;;;;;9.40;90.48;94519.95;107321;1296;124475;-89
2024/02/09 17:49:41;;;;;;;;;;;;;;;9.42;90.51;94511.77;107416;1296;22576;-88
2024/02/09 17:52:24;;;;;;;;;;;;;;;9.30;90.93;94512.98;107200;1302;125032;-88
2024/02/09 17:55:23;;;;;;;;;;;;;;;;;;;;;
2024/02/09 17:58:39;;;;;;;;;;;;;;;9.28;90.83;94516.48;107225;1303;125000;-88
2024/02/09 18:01:46;;;;;;;;;;;;;;;9.31;90.79;94512.05;107309;1289;24320;-88
2024/02/09 18:04:55;;;;;;;;;;;;;;;9.30;90.69;94515.73;106967;1303;124844;-88
2024/02/09 18:08:12;;;;;;;;;;;;;;;9.33;90.99;94509.88;107403;1301;22604;-88
2024/02/09 18:11:13;;;;;;;;;;;;;;;9.29;91.02;94511.56;107237;1304;22554;-87